Time;durP1;ratioP1;P1;durP2;ratioP2;P2;SDS_P1;SDS_P2;PMS_P1;PMS_P2;Temp;Humidity;BMP_temperature;BMP_pressure;BME280_temperature;BME280_humidity;BME280_pressure;Samples;Min_cycle;Max_cycle;Signal;HPM_P1;HPM_P2
2023/04/16 00:01:47;;;;;;;52.05;37.38;;;;;;;9.07;98.27;99304.53;5051719;28;20025;-75
2023/04/16 00:04:12;;;;;;;53.15;37.40;;;;;;;9.05;98.29;99321.09;5051679;28;20112;-76
2023/04/16 00:06:37;;;;;;;65.80;42.42;;;;;;;9.00;98.33;99326.50;5053375;28;20025;-75
2023/04/16 00:09:03;;;;;;;54.78;36.90;;;;;;;8.91;98.45;99319.13;5055842;28;20016;-75
2023/04/16 00:11:28;;;;;;;50.55;34.30;;;;;;;8.76;98.03;99302.47;5055763;28;20457;-75
2023/04/16 00:13:53;;;;;;;47.17;34.17;;;;;;;8.70;98.63;99307.94;5056238;28;20048;-76
2023/04/16 00:16:19;;;;;;;58.95;37.45;;;;;;;8.78;98.92;99336.16;5055701;28;20032;-76
2023/04/16 00:18:44;;;;;;;54.45;37.70;;;;;;;8.61;99.30;99332.56;5055755;28;20380;-76
2023/04/16 00:21:10;;;;;;;46.70;33.13;;;;;;;8.59;99.77;99329.16;5055450;28;20071;-75
2023/04/16 00:23:35;;;;;;;115.25;59.05;;;;;;;8.50;99.99;99311.41;5055443;28;20575;-76
2023/04/16 00:26:00;;;;;;;82.82;49.13;;;;;;;8.61;99.70;99326.53;5055462;28;20040;-75
2023/04/16 00:28:26;;;;;;;80.53;49.05;;;;;;;8.49;99.08;99315.75;5055440;28;20052;-75
2023/04/16 00:30:52;;;;;;;75.25;44.30;;;;;;;8.43;98.47;99321.22;5055459;28;20045;-76
2023/04/16 00:33:17;;;;;;;70.22;44.25;;;;;;;8.36;98.52;99311.13;5055165;28;20033;-76
2023/04/16 00:35:46;;;;;;;63.63;39.08;;;;;;;8.49;98.22;99336.53;5055284;28;20025;-75
2023/04/16 00:38:12;;;;;;;61.47;39.70;;;;;;;8.43;97.74;99328.19;5055046;28;20021;-76
2023/04/16 00:40:38;;;;;;;56.97;39.55;;;;;;;8.34;98.47;99334.53;5055259;28;20104;-75
2023/04/16 00:43:03;;;;;;;53.75;38.03;;;;;;;8.21;98.39;99310.03;5055427;28;20567;-75
2023/04/16 00:45:29;;;;;;;49.92;36.40;;;;;;;8.11;98.25;99300.97;5054940;28;20029;-76
2023/04/16 00:47:55;;;;;;;48.47;37.90;;;;;;;8.01;98.39;99290.13;5055198;28;20492;-75
2023/04/16 00:50:20;;;;;;;43.10;35.25;;;;;;;8.06;99.34;99308.94;5054888;28;20430;-75
2023/04/16 00:52:47;;;;;;;43.45;33.35;;;;;;;7.92;99.67;99304.31;5054956;28;20025;-75
2023/04/16 00:55:14;;;;;;;42.55;31.80;;;;;;;8.00;100.00;99320.38;5055031;28;20032;-75
2023/04/16 00:57:39;;;;;;;41.35;32.05;;;;;;;8.05;99.88;99338.38;5055031;28;20115;-75
2023/04/16 01:00:05;;;;;;;44.90;32.45;;;;;;;7.98;99.77;99316.19;5054914;28;20151;-75
2023/04/16 01:02:32;;;;;;;41.40;30.70;;;;;;;8.07;99.99;99328.78;5054651;28;20370;-75
2023/04/16 01:04:59;;;;;;;38.65;29.40;;;;;;;7.87;99.53;99303.66;5054685;28;20032;-75
2023/04/16 01:07:24;;;;;;;34.75;27.65;;;;;;;8.12;99.72;99347.56;5054483;28;20025;-76
2023/04/16 01:09:50;;;;;;;34.15;26.30;;;;;;;8.07;100.00;99346.09;5054917;28;20033;-75
2023/04/16 01:12:15;;;;;;;40.05;29.52;;;;;;;7.93;100.00;99318.13;5054499;28;20021;-75
2023/04/16 01:14:40;;;;;;;39.75;28.67;;;;;;;8.06;100.00;99342.66;5054632;28;20029;-75
2023/04/16 01:17:05;;;;;;;37.38;27.92;;;;;;;7.94;100.00;99317.22;5054222;28;20051;-75
2023/04/16 01:19:31;;;;;;;38.38;28.73;;;;;;;7.87;100.00;99319.22;5053326;28;20036;-75
2023/04/16 01:21:57;;;;;;;34.92;26.13;;;;;;;8.02;99.88;99335.06;5054488;28;20468;-75
2023/04/16 01:24:23;;;;;;;34.63;26.17;;;;;;;8.04;99.28;99349.63;5054466;28;20061;-76
2023/04/16 01:26:48;;;;;;;35.45;26.98;;;;;;;8.03;99.23;99345.38;5054646;28;20104;-76
2023/04/16 01:29:13;;;;;;;35.40;26.90;;;;;;;8.02;99.08;99343.69;5054353;28;20094;-75
2023/04/16 01:31:39;;;;;;;32.47;24.77;;;;;;;8.04;99.00;99335.81;5054373;28;20060;-75
2023/04/16 01:34:04;;;;;;;35.50;27.20;;;;;;;7.88;99.06;99313.13;5054257;28;20032;-75
2023/04/16 01:36:30;;;;;;;34.78;25.85;;;;;;;8.01;99.04;99336.81;5053720;28;20123;-75
2023/04/16 01:38:55;;;;;;;34.92;26.45;;;;;;;7.87;99.56;99328.75;5054349;28;20465;-75
2023/04/16 01:41:21;;;;;;;33.03;25.98;;;;;;;7.95;99.22;99335.28;5054069;28;20029;-75
2023/04/16 01:43:46;;;;;;;32.72;25.00;;;;;;;7.84;99.26;99319.34;5054101;28;20028;-75
2023/04/16 01:46:22;;;;;;;33.85;26.90;;;;;;;7.84;99.15;99321.94;5053818;28;20021;-76
2023/04/16 01:48:47;;;;;;;35.10;27.52;;;;;;;7.85;99.76;99334.00;5054025;28;20025;-75
2023/04/16 01:51:13;;;;;;;42.55;29.60;;;;;;;7.79;99.97;99328.19;5053306;28;20032;-75
2023/04/16 01:53:38;;;;;;;38.53;26.98;;;;;;;7.93;99.81;99357.03;5054105;28;20025;-75
2023/04/16 01:56:04;;;;;;;38.85;29.88;;;;;;;7.79;99.39;99338.56;5053990;28;20029;-76
2023/04/16 01:58:31;;;;;;;45.28;32.15;;;;;;;7.81;99.91;99353.19;5053648;28;20021;-75
2023/04/16 02:00:57;;;;;;;44.45;30.52;;;;;;;7.75;100.00;99343.03;5053771;28;20036;-75
2023/04/16 02:03:23;;;;;;;41.25;30.25;;;;;;;7.82;100.00;99352.25;5053559;28;20033;-75
2023/04/16 02:05:49;;;;;;;41.00;30.02;;;;;;;7.75;100.00;99356.00;5053430;28;20107;-75
2023/04/16 02:08:15;;;;;;;45.65;31.83;;;;;;;7.77;100.00;99341.25;5053321;28;20080;-75
2023/04/16 02:10:40;;;;;;;46.38;31.88;;;;;;;7.92;100.00;99373.47;5053570;28;20504;-75
2023/04/16 02:13:05;;;;;;;47.33;33.40;;;;;;;7.90;100.00;99373.53;5053623;28;20048;-75
2023/04/16 02:15:31;;;;;;;49.00;34.30;;;;;;;7.87;100.00;99378.84;5053421;28;20360;-76
2023/04/16 02:17:56;;;;;;;45.35;31.13;;;;;;;7.82;100.00;99359.19;5053481;28;20028;-75
2023/04/16 02:20:22;;;;;;;57.92;41.75;;;;;;;7.88;100.00;99377.97;5053368;28;20497;-75
2023/04/16 02:22:47;;;;;;;46.60;33.13;;;;;;;7.87;100.00;99371.06;5053807;28;20050;-75
2023/04/16 02:25:13;;;;;;;42.97;31.48;;;;;;;7.83;100.00;99376.44;5053302;28;20033;-75
2023/04/16 02:27:38;;;;;;;48.70;34.03;;;;;;;7.69;100.00;99367.47;5051868;28;20028;-75
2023/04/16 02:30:05;;;;;;;47.95;32.75;;;;;;;7.25;100.00;99304.44;5052744;28;20063;-76
2023/04/16 02:32:30;;;;;;;40.88;31.50;;;;;;;7.34;100.00;99368.84;5052861;28;20067;-75
2023/04/16 02:34:56;;;;;;;43.55;32.15;;;;;;;7.30;100.00;99375.03;5052982;28;20029;-75
2023/04/16 02:37:21;;;;;;;43.25;31.15;;;;;;;7.03;100.00;99350.16;5053106;28;20480;-75
2023/04/16 02:39:48;;;;;;;43.78;31.20;;;;;;;7.18;100.00;99362.53;5053290;28;20112;-75
2023/04/16 02:42:15;;;;;;;46.72;32.70;;;;;;;6.98;100.00;99358.91;5053080;28;20025;-75
2023/04/16 02:44:40;;;;;;;48.13;35.05;;;;;;;7.03;100.00;99363.94;5052868;28;20487;-75
2023/04/16 02:47:06;;;;;;;44.63;34.10;;;;;;;7.16;100.00;99365.19;5052798;28;20017;-75
2023/04/16 02:49:31;;;;;;;48.85;38.28;;;;;;;7.21;100.00;99365.84;5052449;28;20453;-76
2023/04/16 02:51:56;;;;;;;66.30;47.85;;;;;;;7.39;100.00;99386.78;5052925;28;20071;-75
2023/04/16 02:54:22;;;;;;;69.10;47.38;;;;;;;7.43;100.00;99385.78;5051411;28;20033;-75
2023/04/16 02:56:47;;;;;;;113.50;59.13;;;;;;;7.42;100.00;99369.38;5052754;28;20036;-75
2023/04/16 02:59:12;;;;;;;105.80;54.75;;;;;;;7.45;100.00;99373.59;5052934;28;20362;-75
2023/04/16 03:01:37;;;;;;;94.07;62.38;;;;;;;7.55;100.00;99379.28;5052324;28;20032;-75
2023/04/16 03:04:03;;;;;;;71.78;48.97;;;;;;;7.49;100.00;99364.78;5052640;28;20107;-75
2023/04/16 03:06:29;;;;;;;48.90;33.75;;;;;;;7.63;100.00;99393.63;5052438;28;20021;-76
2023/04/16 03:08:54;;;;;;;41.22;31.23;;;;;;;7.53;100.00;99375.91;5052649;28;20028;-76
2023/04/16 03:11:20;;;;;;;43.20;31.92;;;;;;;7.55;100.00;99400.84;5052345;28;20017;-76
2023/04/16 03:13:45;;;;;;;43.67;32.97;;;;;;;7.40;100.00;99376.34;5052459;28;20033;-76
2023/04/16 03:16:10;;;;;;;46.08;33.65;;;;;;;7.41;100.00;99379.78;5052353;28;20499;-76
2023/04/16 03:18:36;;;;;;;44.72;33.13;;;;;;;7.45;100.00;99384.78;5051988;28;20560;-75
2023/04/16 03:21:01;;;;;;;47.53;35.50;;;;;;;7.43;100.00;99388.38;5052475;28;20396;-75
2023/04/16 03:23:27;;;;;;;52.58;36.42;;;;;;;7.45;100.00;99392.56;5052135;28;20115;-75
2023/04/16 03:25:52;;;;;;;51.78;37.55;;;;;;;7.49;100.00;99390.72;5052232;28;20075;-75
2023/04/16 03:28:18;;;;;;;52.00;36.90;;;;;;;7.54;100.00;99400.91;5051915;28;20033;-75
2023/04/16 03:30:50;;;;;;;53.22;37.08;;;;;;;7.58;100.00;99405.06;5052232;28;20049;-75
2023/04/16 03:33:16;;;;;;;59.28;44.08;;;;;;;7.63;100.00;99397.97;5051998;28;20057;-75
2023/04/16 03:35:41;;;;;;;60.67;45.30;;;;;;;7.75;100.00;99406.13;5051930;28;20417;-76
2023/04/16 03:38:06;;;;;;;53.88;40.70;;;;;;;7.92;100.00;99427.94;5052196;28;20028;-75
2023/04/16 03:40:32;;;;;;;54.30;40.92;;;;;;;7.83;100.00;99405.78;5051681;28;20035;-75
2023/04/16 03:42:57;;;;;;;51.20;36.03;;;;;;;8.02;100.00;99412.88;5051565;28;20059;-75
2023/04/16 03:45:22;;;;;;;52.17;37.35;;;;;;;8.12;100.00;99425.41;5051671;28;20025;-75
2023/04/16 03:47:51;;;;;;;46.97;35.95;;;;;;;8.18;100.00;99425.16;5051781;28;20029;-75
2023/04/16 03:50:18;;;;;;;50.85;38.35;;;;;;;8.18;100.00;99421.72;5051971;28;20108;-76
2023/04/16 03:52:43;;;;;;;46.97;35.42;;;;;;;8.15;100.00;99414.91;5052033;28;20075;-76
2023/04/16 03:55:09;;;;;;;52.78;39.03;;;;;;;8.20;100.00;99417.31;5051891;28;20033;-75
2023/04/16 03:57:34;;;;;;;61.75;45.70;;;;;;;8.33;100.00;99436.66;5051657;28;20052;-76
2023/04/16 04:00:00;;;;;;;60.30;44.13;;;;;;;8.27;100.00;99412.72;5051926;28;20040;-75
2023/04/16 04:02:25;;;;;;;68.43;45.75;;;;;;;8.31;100.00;99412.53;5051390;28;20446;-75
2023/04/16 04:04:51;;;;;;;57.85;40.50;;;;;;;8.34;100.00;99424.53;5051924;28;20033;-75
2023/04/16 04:07:16;;;;;;;56.40;38.78;;;;;;;8.39;100.00;99431.25;5051897;28;20445;-76
2023/04/16 04:09:41;;;;;;;46.65;33.85;;;;;;;8.50;100.00;99451.56;5051562;28;20031;-75
2023/04/16 04:12:08;;;;;;;45.25;31.65;;;;;;;8.48;100.00;99453.41;5050413;28;20025;-76
2023/04/16 04:14:38;;;;;;;45.80;34.10;;;;;;;8.40;100.00;99440.72;5051467;28;20033;-75
2023/04/16 04:17:04;;;;;;;46.10;32.53;;;;;;;8.52;100.00;99459.31;5051411;28;20472;-75
2023/04/16 04:19:29;;;;;;;65.13;37.97;;;;;;;8.45;100.00;99454.34;5051554;28;20032;-75
2023/04/16 04:21:55;;;;;;;50.88;34.42;;;;;;;8.39;100.00;99449.44;5051709;28;20070;-75
2023/04/16 04:24:20;;;;;;;85.75;47.40;;;;;;;8.50;100.00;99459.34;5051458;28;20036;-75
2023/04/16 04:26:45;;;;;;;60.80;40.20;;;;;;;8.54;100.00;99467.88;5051587;28;20017;-76
2023/04/16 04:29:11;;;;;;;65.60;42.72;;;;;;;8.50;100.00;99467.97;5051371;28;20032;-75
2023/04/16 04:31:36;;;;;;;67.20;42.72;;;;;;;8.32;100.00;99441.91;5051516;28;20076;-75
2023/04/16 04:34:01;;;;;;;62.28;42.00;;;;;;;8.47;100.00;99462.09;5051396;28;20112;-76
2023/04/16 04:36:28;;;;;;;60.47;41.58;;;;;;;8.37;100.00;99456.41;5051159;28;20045;-75
2023/04/16 04:38:53;;;;;;;61.03;47.00;;;;;;;8.09;100.00;99407.38;5051386;28;20025;-75
2023/04/16 04:41:20;;;;;;;59.08;45.75;;;;;;;8.41;100.00;99450.19;5051326;28;20033;-75
2023/04/16 04:43:45;;;;;;;57.67;42.30;;;;;;;8.45;100.00;99467.31;5050877;28;20074;-76
2023/04/16 04:46:11;;;;;;;53.53;38.53;;;;;;;8.36;100.00;99453.88;5051207;28;20071;-75
2023/04/16 04:48:36;;;;;;;52.58;37.47;;;;;;;8.56;100.00;99477.28;5051232;28;20028;-76
2023/04/16 04:51:03;;;;;;;54.25;37.38;;;;;;;8.58;100.00;99478.06;5051667;28;20114;-75
2023/04/16 04:53:28;;;;;;;48.92;37.17;;;;;;;8.62;100.00;99483.97;5053648;28;20025;-75
2023/04/16 04:55:54;;;;;;;53.13;37.58;;;;;;;8.58;100.00;99475.47;5055052;28;20526;-76
2023/04/16 04:58:19;;;;;;;47.95;34.08;;;;;;;8.67;100.00;99488.06;5054935;28;20025;-75
2023/04/16 05:00:45;;;;;;;48.92;35.22;;;;;;;8.60;100.00;99471.06;5054681;28;20025;-75
2023/04/16 05:03:11;;;;;;;44.50;33.05;;;;;;;8.57;100.00;99486.75;5055088;28;20043;-75
2023/04/16 05:05:40;;;;;;;45.28;33.08;;;;;;;8.65;100.00;99496.84;5054689;28;20083;-75
2023/04/16 05:08:06;;;;;;;42.08;32.35;;;;;;;8.72;100.00;99493.94;5054973;28;20029;-75
2023/04/16 05:10:31;;;;;;;38.97;29.40;;;;;;;8.78;100.00;99494.56;5054490;28;20444;-76
2023/04/16 05:12:56;;;;;;;36.70;29.35;;;;;;;8.96;100.00;99505.03;5054803;28;20045;-75
2023/04/16 05:15:22;;;;;;;37.80;29.48;;;;;;;8.66;100.00;99486.38;5054596;28;20108;-75
2023/04/16 05:17:47;;;;;;;45.05;32.60;;;;;;;8.42;100.00;99470.03;5054549;28;20368;-76
2023/04/16 05:20:12;;;;;;;66.45;29.08;;;;;;;8.18;100.00;99525.50;5054546;28;20451;-76
2023/04/16 05:22:38;;;;;;;45.88;30.10;;;;;;;8.02;100.00;99530.41;5054192;28;20640;-75
2023/04/16 05:25:03;;;;;;;40.13;27.35;;;;;;;7.63;100.00;99524.97;5054369;28;20414;-75
2023/04/16 05:27:29;;;;;;;39.72;25.30;;;;;;;7.53;100.00;99508.06;5054180;28;20508;-75
2023/04/16 05:29:54;;;;;;;40.75;27.90;;;;;;;7.45;100.00;99516.09;5054125;28;20370;-76
2023/04/16 05:32:19;;;;;;;37.30;22.55;;;;;;;7.57;100.00;99540.75;5053270;28;20095;-75
2023/04/16 05:34:45;;;;;;;40.13;28.02;;;;;;;7.61;100.00;99521.59;5054382;28;20040;-75
2023/04/16 05:37:10;;;;;;;35.20;24.98;;;;;;;7.74;100.00;99544.41;5054285;28;20377;-75
2023/04/16 05:39:35;;;;;;;34.42;24.45;;;;;;;7.31;100.00;99495.88;5054069;28;20534;-75
2023/04/16 05:42:01;;;;;;;36.35;26.13;;;;;;;7.83;100.00;99540.63;5054159;28;20029;-76
2023/04/16 05:44:26;;;;;;;30.77;24.05;;;;;;;7.84;100.00;99544.09;5053743;28;20440;-75
2023/04/16 05:46:51;;;;;;;34.63;25.08;;;;;;;7.96;100.00;99549.66;5054240;28;20484;-75
2023/04/16 05:49:20;;;;;;;30.65;23.25;;;;;;;8.03;100.00;99523.47;5053993;28;20104;-75
2023/04/16 05:51:46;;;;;;;30.13;24.17;;;;;;;8.32;100.00;99528.38;5053892;28;20033;-75
2023/04/16 05:54:11;;;;;;;27.13;21.67;;;;;;;8.70;99.93;99521.69;5054315;28;20029;-76
2023/04/16 05:56:37;;;;;;;27.08;21.35;;;;;;;9.59;97.53;99504.88;5053737;28;20040;-76
2023/04/16 05:59:02;;;;;;;24.75;19.35;;;;;;;10.94;93.11;99506.31;5053791;28;20656;-76
2023/04/16 06:01:27;;;;;;;24.90;18.83;;;;;;;11.94;88.67;99505.41;5053747;28;20473;-77
2023/04/16 06:03:53;;;;;;;22.10;17.65;;;;;;;12.68;84.43;99532.63;5053013;28;20017;-77
2023/04/16 06:06:18;;;;;;;19.25;15.95;;;;;;;13.25;82.95;99527.59;5053736;28;20025;-77
2023/04/16 06:08:43;;;;;;;19.08;16.15;;;;;;;14.17;79.21;99512.31;5053474;28;20107;-77
2023/04/16 06:11:09;;;;;;;20.15;16.67;;;;;;;15.32;74.86;99517.88;5053838;28;20028;-77
2023/04/16 06:13:34;;;;;;;21.60;17.35;;;;;;;15.99;71.93;99546.50;5053217;28;20090;-77
2023/04/16 06:15:59;;;;;;;20.60;16.38;;;;;;;14.73;71.60;99544.53;5053782;28;20032;-77
2023/04/16 06:18:25;;;;;;;18.83;16.35;;;;;;;14.32;73.34;99568.13;5053883;28;20033;-77
2023/04/16 06:20:50;;;;;;;20.40;16.27;;;;;;;14.08;73.70;99561.81;5053401;28;20021;-77
2023/04/16 06:23:16;;;;;;;22.30;18.05;;;;;;;13.60;75.49;99550.81;5053483;28;20025;-76
2023/04/16 06:25:41;;;;;;;24.45;18.80;;;;;;;12.80;77.57;99578.97;5053169;28;20025;-76
2023/04/16 06:28:06;;;;;;;22.70;19.40;;;;;;;12.15;79.84;99588.72;5053234;28;20033;-76
2023/04/16 06:30:32;;;;;;;24.85;21.55;;;;;;;11.81;81.44;99587.88;5053129;28;20045;-76
2023/04/16 06:32:57;;;;;;;27.83;21.75;;;;;;;10.96;82.98;99522.72;5053154;28;20064;-76
2023/04/16 06:35:23;;;;;;;25.05;20.05;;;;;;;10.58;85.54;99577.53;5053151;28;20480;-76
2023/04/16 06:37:48;;;;;;;23.50;20.20;;;;;;;10.64;86.68;99589.41;5052965;28;20025;-76
2023/04/16 06:40:13;;;;;;;27.60;20.88;;;;;;;10.22;87.34;99580.91;5052989;28;20465;-76
2023/04/16 06:42:39;;;;;;;32.85;24.23;;;;;;;9.77;88.99;99583.00;5053029;28;20029;-76
2023/04/16 06:45:05;;;;;;;31.15;22.83;;;;;;;9.86;90.01;99596.44;5052707;28;20032;-76
2023/04/16 06:47:30;;;;;;;24.02;19.65;;;;;;;9.40;91.26;99569.84;5052647;28;20025;-76
2023/04/16 06:49:56;;;;;;;24.45;18.48;;;;;;;9.28;92.19;99603.31;5051570;28;20579;-76
2023/04/16 06:52:21;;;;;;;34.22;24.58;;;;;;;8.87;93.79;99596.31;5052874;28;20032;-76
2023/04/16 06:54:47;;;;;;;30.98;23.50;;;;;;;8.69;95.74;99597.06;5052851;28;20036;-76
2023/04/16 06:57:12;;;;;;;32.42;24.77;;;;;;;8.71;96.42;99584.84;5052641;28;20025;-76
2023/04/16 06:59:37;;;;;;;33.03;24.08;;;;;;;8.79;96.45;99584.53;5052149;28;20028;-76
2023/04/16 07:02:03;;;;;;;30.02;19.77;;;;;;;8.84;95.70;99560.06;5052690;28;20082;-76
2023/04/16 07:04:28;;;;;;;27.83;21.20;;;;;;;9.08;95.49;99584.19;5052721;28;20461;-75
2023/04/16 07:06:54;;;;;;;24.30;20.13;;;;;;;9.17;94.85;99586.41;5052361;28;20025;-75
2023/04/16 07:09:19;;;;;;;25.08;19.13;;;;;;;9.21;94.67;99593.16;5052452;28;20059;-75
2023/04/16 07:11:44;;;;;;;25.30;19.75;;;;;;;9.28;95.04;99611.97;5052034;28;20094;-75
2023/04/16 07:14:10;;;;;;;25.52;20.38;;;;;;;9.45;95.01;99626.84;5052350;28;20032;-75
2023/04/16 07:16:36;;;;;;;30.13;22.50;;;;;;;9.24;94.81;99577.47;5052553;28;20056;-75
2023/04/16 07:19:02;;;;;;;27.88;21.35;;;;;;;9.46;94.56;99597.34;5052482;28;20103;-75
2023/04/16 07:21:27;;;;;;;28.95;21.27;;;;;;;9.55;94.75;99588.28;5052299;28;20060;-76
2023/04/16 07:23:52;;;;;;;29.00;22.67;;;;;;;9.89;94.25;99624.06;5052082;28;20029;-75
2023/04/16 07:26:18;;;;;;;28.92;23.08;;;;;;;9.85;93.57;99604.31;5052154;28;20040;-75
2023/04/16 07:28:43;;;;;;;35.08;25.70;;;;;;;10.04;93.40;99635.56;5052015;28;20025;-75
2023/04/16 07:31:08;;;;;;;33.95;23.60;;;;;;;10.08;93.12;99631.91;5052088;28;20080;-76
2023/04/16 07:33:34;;;;;;;33.80;24.60;;;;;;;10.31;92.75;99618.72;5052063;28;20083;-76
2023/04/16 07:35:59;;;;;;;28.08;22.73;;;;;;;10.65;91.80;99623.19;5052106;28;20381;-76
2023/04/16 07:38:25;;;;;;;33.45;25.17;;;;;;;10.99;90.11;99645.03;5052118;28;20056;-75
2023/04/16 07:40:50;;;;;;;33.63;24.25;;;;;;;11.16;88.66;99631.19;5051817;28;20047;-75
2023/04/16 07:43:15;;;;;;;33.40;24.33;;;;;;;11.91;87.71;99653.50;5051938;28;20025;-76
2023/04/16 07:45:41;;;;;;;25.75;19.85;;;;;;;15.35;78.73;99637.56;5051925;28;20498;-76
2023/04/16 07:48:06;;;;;;;24.60;19.42;;;;;;;18.87;67.36;99636.16;5052130;28;20021;-77
2023/04/16 07:50:31;;;;;;;25.65;20.85;;;;;;;21.61;58.24;99644.13;5052000;28;20033;-77
2023/04/16 07:52:57;;;;;;;21.67;19.38;;;;;;;23.88;53.87;99630.88;5051700;28;20542;-77
2023/04/16 07:55:22;;;;;;;18.80;16.52;;;;;;;25.42;48.88;99646.69;5051882;28;20032;-77
2023/04/16 07:57:48;;;;;;;19.00;16.98;;;;;;;26.76;47.65;99630.84;5051595;28;20123;-77
2023/04/16 08:00:13;;;;;;;15.68;14.07;;;;;;;27.87;44.27;99643.69;5051966;28;20029;-77
2023/04/16 08:02:39;;;;;;;15.55;14.05;;;;;;;28.83;43.22;99639.19;5051733;28;20044;-77
2023/04/16 08:05:05;;;;;;;16.63;15.07;;;;;;;29.74;40.67;99655.53;5051622;28;20029;-77
2023/04/16 08:07:30;;;;;;;16.83;15.23;;;;;;;28.95;40.83;99634.13;5051716;28;20108;-77
2023/04/16 08:09:56;;;;;;;16.60;15.02;;;;;;;29.41;40.45;99649.84;5051666;28;20431;-77
2023/04/16 08:12:21;;;;;;;17.08;15.48;;;;;;;29.73;39.75;99637.75;5051667;28;20472;-77
2023/04/16 08:14:47;;;;;;;17.15;15.35;;;;;;;29.08;40.16;99642.34;5051647;28;20522;-77
2023/04/16 08:17:14;;;;;;;16.00;14.48;;;;;;;27.52;42.48;99637.16;5051771;28;20056;-77
2023/04/16 08:19:40;;;;;;;15.10;12.60;;;;;;;25.76;43.59;99633.16;5051476;28;20032;-77
2023/04/16 08:22:05;;;;;;;17.05;14.48;;;;;;;23.32;48.12;99663.16;5051636;28;20061;-76
2023/04/16 08:24:31;;;;;;;14.80;13.30;;;;;;;20.07;54.16;99647.31;5051508;28;20025;-76
2023/04/16 08:26:56;;;;;;;14.23;12.00;;;;;;;18.15;58.89;99646.28;5051461;28;20021;-76
2023/04/16 08:29:25;;;;;;;14.43;12.82;;;;;;;17.11;62.32;99643.66;5055748;28;20108;-76
2023/04/16 08:31:50;;;;;;;15.48;12.57;;;;;;;16.22;66.11;99644.72;5055363;28;20041;-76
2023/04/16 08:34:16;;;;;;;14.55;12.32;;;;;;;15.73;67.58;99603.50;5055428;28;20074;-76
2023/04/16 08:36:41;;;;;;;15.40;13.00;;;;;;;16.10;68.23;99675.34;5054966;28;20025;-76
2023/04/16 08:39:06;;;;;;;16.58;12.07;;;;;;;15.75;67.98;99655.91;5055435;28;20464;-76
2023/04/16 08:41:35;;;;;;;14.15;11.68;;;;;;;15.44;68.76;99631.69;5054889;28;20112;-76
2023/04/16 08:44:06;;;;;;;14.93;13.43;;;;;;;15.50;70.16;99644.38;5055071;28;20633;-76
2023/04/16 08:46:36;;;;;;;11.65;10.52;;;;;;;15.77;69.53;99646.97;5055339;28;20035;-76
2023/04/16 08:49:05;;;;;;;8.95;8.00;;;;;;;16.03;68.44;99649.59;5055015;28;20024;-76
2023/04/16 08:51:34;;;;;;;6.68;5.50;;;;;;;15.86;65.50;99656.84;5055421;28;20032;-76
2023/04/16 08:54:03;;;;;;;7.43;6.55;;;;;;;16.65;65.91;99668.00;5054813;28;20115;-76
2023/04/16 08:56:30;;;;;;;6.47;5.78;;;;;;;16.69;63.47;99653.69;5055272;28;20025;-76
2023/04/16 08:58:57;;;;;;;9.95;8.95;;;;;;;16.16;64.43;99653.06;5054938;28;20032;-76
2023/04/16 09:01:25;;;;;;;6.25;5.75;;;;;;;15.63;64.80;99653.13;5054823;28;20029;-76
2023/04/16 09:03:51;;;;;;;9.43;8.52;;;;;;;15.27;67.66;99679.19;5054583;28;20497;-76
2023/04/16 09:06:17;;;;;;;12.82;11.45;;;;;;;14.74;70.77;99686.94;5054807;28;20033;-76
2023/04/16 09:08:46;;;;;;;15.82;13.93;;;;;;;14.63;71.51;99692.88;5054538;28;20021;-76
2023/04/16 09:11:13;;;;;;;17.15;15.35;;;;;;;14.45;72.40;99670.38;5054930;28;20021;-76
2023/04/16 09:13:38;;;;;;;13.60;12.20;;;;;;;14.68;72.13;99703.06;5054698;28;20473;-76
2023/04/16 09:16:06;;;;;;;12.10;10.77;;;;;;;14.82;71.49;99695.16;5054725;28;20060;-76
2023/04/16 09:18:31;;;;;;;12.82;11.43;;;;;;;14.74;71.86;99686.94;5054664;28;20028;-76
2023/04/16 09:20:58;;;;;;;12.05;10.85;;;;;;;14.65;72.24;99677.88;5054298;28;20052;-76
2023/04/16 09:23:23;;;;;;;8.00;7.20;;;;;;;14.73;70.44;99699.22;5054462;28;20106;-76
2023/04/16 09:25:49;;;;;;;8.23;7.30;;;;;;;14.89;70.88;99709.56;5054109;28;20476;-76
2023/04/16 09:28:51;;;;;;;10.63;9.52;;;;;;;14.56;70.69;99709.06;5054820;28;20120;-76
2023/04/16 09:31:17;;;;;;;;;;;;;;;14.54;71.27;99701.31;5054641;28;20084;-76
2023/04/16 09:33:59;;;;;;;12.52;10.20;;;;;;;14.32;72.12;99666.84;5054361;28;20005;-76
2023/04/16 09:36:25;;;;;;;;;;;;;;;14.69;69.60;99704.75;5054868;28;20100;-76
2023/04/16 09:38:52;;;;;;;10.70;9.40;;;;;;;14.47;70.47;99695.56;5052930;28;19913;-76
2023/04/16 09:41:18;;;;;;;10.38;9.07;;;;;;;14.57;70.39;99681.91;5054140;28;20139;-76
2023/04/16 09:43:57;;;;;;;6.72;6.05;;;;;;;14.91;69.95;99702.44;5053939;28;20032;-76
2023/04/16 09:46:30;;;;;;;7.53;6.72;;;;;;;14.90;68.33;99690.28;5054006;28;20036;-76
2023/04/16 09:48:56;;;;;;;10.10;8.98;;;;;;;15.12;68.65;99704.63;5053934;28;20533;-76
2023/04/16 09:51:25;;;;;;;8.77;7.65;;;;;;;15.17;67.62;99713.06;5054120;28;20116;-76
2023/04/16 09:53:54;;;;;;;9.48;8.02;;;;;;;15.18;68.23;99704.25;5053761;28;20500;-76
2023/04/16 09:56:24;;;;;;;12.20;9.73;;;;;;;15.13;68.44;99703.72;5053971;28;20496;-76
2023/04/16 09:58:50;;;;;;;12.70;11.40;;;;;;;15.11;69.30;99714.28;5053845;28;20020;-76
2023/04/16 10:01:17;;;;;;;13.43;12.02;;;;;;;14.88;70.17;99688.72;5054307;28;20052;-76
2023/04/16 10:03:42;;;;;;;12.63;11.13;;;;;;;14.91;70.57;99691.94;5053767;28;20078;-76
2023/04/16 10:06:14;;;;;;;12.50;10.68;;;;;;;14.76;70.35;99702.59;5053711;28;20124;-76
2023/04/16 10:08:46;;;;;;;12.13;10.60;;;;;;;14.80;70.65;99714.56;5053865;28;20021;-76
2023/04/16 10:11:11;;;;;;;10.43;9.25;;;;;;;14.72;70.58;99707.19;5053979;28;20029;-76
2023/04/16 10:13:37;;;;;;;11.70;9.65;;;;;;;14.94;70.12;99720.63;5053849;28;20029;-76
2023/04/16 10:16:02;;;;;;;8.48;7.32;;;;;;;14.69;67.75;99705.59;5053517;28;20393;-76
2023/04/16 10:18:28;;;;;;;9.50;8.50;;;;;;;14.68;68.95;99711.78;5053625;28;20025;-76
2023/04/16 10:20:54;;;;;;;10.70;8.75;;;;;;;14.58;69.99;99709.81;5053265;28;20116;-76
2023/04/16 10:23:21;;;;;;;9.20;8.30;;;;;;;14.63;70.69;99713.00;5053429;28;20112;-76
2023/04/16 10:25:48;;;;;;;8.80;7.53;;;;;;;14.63;69.76;99728.72;5053052;28;20029;-76
2023/04/16 10:28:14;;;;;;;9.32;8.20;;;;;;;14.73;70.64;99728.03;5053588;28;20032;-77
2023/04/16 10:30:47;;;;;;;11.75;9.27;;;;;;;14.48;69.99;99733.09;5053279;28;20063;-77
2023/04/16 10:33:13;;;;;;;6.78;5.68;;;;;;;14.26;66.30;99714.38;5030673;28;20153;-76
2023/04/16 10:35:39;;;;;;;4.63;3.60;;;;;;;14.47;65.29;99700.81;5030972;28;20033;-77
2023/04/16 10:38:24;;;;;;;3.58;3.28;;;;;;;14.96;66.04;99718.75;5013864;28;20049;-77
2023/04/16 10:40:57;;;;;;;6.53;4.30;;;;;;;14.97;63.49;99696.81;5030565;28;20034;-77
2023/04/16 10:43:24;;;;;;;4.30;3.00;;;;;;;15.33;64.35;99705.03;5030712;28;20033;-77
2023/04/16 10:45:50;;;;;;;5.78;4.40;;;;;;;15.46;63.89;99698.03;5015191;28;20058;-75
2023/04/16 10:48:18;;;;;;;4.10;3.63;;;;;;;15.75;64.32;99721.53;5010769;28;20076;-78
2023/04/16 10:50:56;;;;;;;3.90;3.40;;;;;;;15.60;61.95;99712.88;5010311;28;20040;-78
2023/04/16 10:53:26;;;;;;;4.28;3.60;;;;;;;15.79;61.53;99713.34;5010730;28;20628;-78
2023/04/16 10:56:06;;;;;;;6.55;4.88;;;;;;;15.59;62.76;99719.91;5010784;28;20042;-78
2023/04/16 10:58:35;;;;;;;4.50;3.78;;;;;;;15.58;62.04;99704.25;4994085;28;20446;-78
2023/04/16 11:01:05;;;;;;;5.20;4.70;;;;;;;15.74;62.46;99712.81;5010202;28;20466;-77
2023/04/16 11:03:33;;;;;;;5.00;4.50;;;;;;;15.56;62.53;99712.25;5015378;28;20128;-78
2023/04/16 11:06:23;;;;;;;5.93;4.72;;;;;;;15.53;62.07;99703.72;5032397;28;20030;-78
2023/04/16 11:08:50;;;;;;;6.90;5.07;;;;;;;15.70;61.91;99706.09;5032371;28;20504;-78
2023/04/16 11:11:17;;;;;;;6.75;4.63;;;;;;;15.43;62.07;99729.75;5043360;28;20029;-78
2023/04/16 11:13:44;;;;;;;5.45;4.40;;;;;;;15.08;62.55;99706.59;5051919;28;20104;-78
2023/04/16 11:16:14;;;;;;;4.72;4.25;;;;;;;15.22;62.73;99726.72;5052019;28;20076;-77
2023/04/16 11:18:40;;;;;;;5.60;4.97;;;;;;;15.16;63.08;99701.72;5052211;28;20025;-78